YOW weather

Ottawa Macdonald-Cartier International Airport
Ottawa, Ontario, Canada

Public forecast

Using degrees Celsius for public forecast. Weather courtesy of forecast.io.

METAR (pilot weather report)

Retrieved 2019/03/22 15:00 UTC (59 minutes ago):

CYOW 221500Z 35010KT 8SM -RA BKN005 OVC010 02/01 A2951 RMK SF6NS2 SLP001

TAF (pilot weather forecast)

Retrieved 2019/03/22 15:00 UTC (59 minutes ago):

TAF TAF CYOW 221438Z 2215/2312 34008KT 3SM -RASN BR BKN007 OVC015 TEMPO 2215/2221 6SM -RA BR SCT007 OVC015 FM222100 32015G25KT 2SM -SNRA SCT008 OVC020 FM222200 32020G32KT 11/2SM -SN OVC015 BECMG 2302/2304 32025G38KT FM230800 32020G35KT 3SM -SN BKN025 OVC080 FM231000 31018G30KT P6SM BKN030 BKN100 BECMG 2310/2312 SCT030 RMK NXT FCST BY 221800Z